Hanford, CA (93230)

7:45 AM PDT on August 28, 2015 (GMT -0700)
North Hanford | | Change Station
CLOSE
Current Station
Personal Weather Station
Location: Hanford, CA
Elevation: 249 ft
Nearby Weather Stations

Elev 249 ft 36.36 °N, 119.66 °W | Updated 32 seconds ago

Clear
Clear
72.1 °F
Feels Like 76 °F
N
4.2
Wind Variable Wind from WNW
Gusts 4.2 mph

Today
High -- | Low -- °F
--% Chance of Precip.
Yesterday
High -- | Low -- °F
Precip. -- in
6:26 AM 7:32 PM
Waxing Gibbous, 98% visible
Pressure 29.91 in
Visibility 9.0 miles
Clouds Clear
Heat Index 76 °F
Dew Point 58 °F
Humidity 61%
Rainfall 0.00 in
Snow Depth Not available.
UV 0 out of 12
Pollen 8.90 out of 12
Air Quality Not available.
Flu Activity Not available.
METAR KHJO 281353Z AUTO 23004KT 9SM CLR 18/13 A2991 RMK AO2 SLP129 T01830128
Pressure 29.91 in
Visibility 9.0 miles
Clouds Clear
Heat Index 76 °F
Dew Point 58 °F
Humidity 61%
Rainfall 0.00 in
Snow Depth Not available.
UV 0 out of 12
Pollen 8.90 out of 12
Air Quality Not available.
Flu Activity Not available.
METAR KHJO 281353Z AUTO 23004KT 9SM CLR 18/13 A2991 RMK AO2 SLP129 T01830128

10-Day Weather Forecast

×

Almanac

Astronomy

Aug. 28, 2015 Rise Set
Actual Time
Civil Twilight
Nautical Twilight
Astronomical Twilight
Moon
Length of Visible Light
Length of Day
Tomorrow will be .
, % of the Moon is Illuminated

Today's Extremes

State Highs State Lows

Community

WunderPhotos

Upload Photos

1,850,387 photos uploaded!

WunderBlogs® & News

Nearby

Air Quality

  Air Quality AQ Index Pollutant
Not available.

Snow Depth

Station Depth Elevation

Earthquake Activity

City Distance Mag. Time & Date
Minimum magnitude displayed is 2.5.

Coastal Water Temperatures

Place Temperature

Stations

Nearby Weather Stations

Station Location Temp. Windchill Dew Point Humidity Wind Precip. Elev Updated Type